Time;durP1;ratioP1;P1;durP2;ratioP2;P2;SDS_P1;SDS_P2;PMS_P1;PMS_P2;Temp;Humidity;BMP_temperature;BMP_pressure;BME280_temperature;BME280_humidity;BME280_pressure;Samples;Min_cycle;Max_cycle;Signal;HPM_P1;HPM_P2
2022/06/10 00:00:50;;;;;;;12.93;2.28;;;16.50;99.90;;;;;;4975856;28;20261;-72
2022/06/10 00:03:20;;;;;;;4.45;2.50;;;16.30;99.90;;;;;;4975637;28;20696;-72
2022/06/10 00:05:50;;;;;;;1.77;1.38;;;16.20;99.90;;;;;;4977003;28;20205;-71
2022/06/10 00:08:21;;;;;;;2.92;2.03;;;16.10;99.90;;;;;;4973743;28;20262;-74
2022/06/10 00:10:50;;;;;;;2.75;1.65;;;16.20;99.90;;;;;;4977485;28;20210;-71
2022/06/10 00:13:19;;;;;;;3.35;1.80;;;16.40;99.90;;;;;;4972096;28;20326;-71
2022/06/10 00:15:48;;;;;;;4.53;2.03;;;16.40;99.90;;;;;;4975984;28;20728;-71
2022/06/10 00:18:17;;;;;;;2.50;1.60;;;16.60;99.90;;;;;;4978059;28;20201;-72
2022/06/10 00:20:46;;;;;;;2.35;1.50;;;16.80;99.90;;;;;;4975885;28;20242;-71
2022/06/10 00:23:15;;;;;;;2.75;1.70;;;17.00;99.90;;;;;;4972995;28;20695;-71
2022/06/10 00:25:45;;;;;;;2.47;1.85;;;17.00;99.90;;;;;;4976315;28;20211;-71
2022/06/10 00:28:14;;;;;;;4.25;1.70;;;17.10;99.90;;;;;;4971442;28;20223;-71
2022/06/10 00:30:43;;;;;;;3.17;1.95;;;17.20;99.90;;;;;;4979146;28;20388;-73
2022/06/10 00:33:12;;;;;;;1.98;1.83;;;17.40;99.90;;;;;;4972732;28;20669;-72
2022/06/10 00:35:42;;;;;;;2.70;1.75;;;17.30;99.90;;;;;;4973078;28;20668;-72
2022/06/10 00:38:10;;;;;;;5.53;1.60;;;17.20;99.90;;;;;;4975771;28;20202;-72
2022/06/10 00:40:44;;;;;;;2.47;1.85;;;17.20;99.90;;;;;;4970088;28;20195;-72
2022/06/10 00:43:16;;;;;;;1.95;1.83;;;17.00;99.90;;;;;;4973022;28;20218;-72
2022/06/10 00:45:54;;;;;;;1.80;1.70;;;17.10;99.90;;;;;;4974786;28;20652;-72
2022/06/10 00:48:28;;;;;;;3.08;1.92;;;17.30;99.90;;;;;;4972615;28;20266;-72
2022/06/10 00:50:57;;;;;;;2.42;2.22;;;17.20;99.90;;;;;;4974344;28;20287;-71
2022/06/10 00:53:29;;;;;;;2.30;1.70;;;17.30;99.90;;;;;;4976095;28;20304;-72
2022/06/10 00:56:00;;;;;;;1.65;1.55;;;17.30;99.90;;;;;;4973063;28;20246;-71
2022/06/10 00:58:34;;;;;;;2.03;1.88;;;17.20;99.90;;;;;;4976697;28;20743;-71
2022/06/10 01:01:03;;;;;;;1.80;1.70;;;17.10;99.90;;;;;;4972872;28;20253;-72
2022/06/10 01:03:32;;;;;;;2.20;1.95;;;17.00;99.90;;;;;;4971404;28;20195;-71
2022/06/10 01:06:00;;;;;;;2.30;1.73;;;16.90;99.90;;;;;;4973686;28;20199;-71
2022/06/10 01:08:28;;;;;;;3.35;1.95;;;16.70;99.90;;;;;;4974021;28;20265;-70
2022/06/10 01:11:09;;;;;;;3.08;2.17;;;16.50;99.90;;;;;;4972974;28;20227;-70
2022/06/10 01:13:44;;;;;;;1.90;1.80;;;16.50;99.90;;;;;;4967359;28;20273;-72
2022/06/10 01:16:21;;;;;;;3.60;1.40;;;16.50;99.90;;;;;;4974353;28;20202;-71
2022/06/10 01:18:59;;;;;;;3.15;2.17;;;16.50;99.90;;;;;;4978270;28;20638;-71
2022/06/10 01:22:04;;;;;;;2.92;1.98;;;16.30;99.90;;;;;;4976571;28;20230;-70
2022/06/10 01:24:52;;;;;;;3.28;1.75;;;16.00;99.90;;;;;;4951679;28;20246;-70
2022/06/10 01:27:49;;;;;;;2.45;2.25;;;15.80;99.90;;;;;;4975225;28;20215;-70
2022/06/10 01:30:52;;;;;;;3.50;1.80;;;15.80;99.90;;;;;;4967789;28;20233;-69
2022/06/10 01:33:28;;;;;;;1.90;1.80;;;15.70;99.90;;;;;;4970669;28;20268;-71
2022/06/10 01:36:03;;;;;;;3.17;2.45;;;15.40;99.90;;;;;;4973115;28;20269;-71
2022/06/10 01:38:37;;;;;;;2.15;1.95;;;15.10;99.90;;;;;;4973498;28;20243;-71
2022/06/10 01:41:19;;;;;;;8.00;2.60;;;15.00;99.90;;;;;;4969186;28;20647;-73
2022/06/10 01:43:57;;;;;;;4.00;1.65;;;15.10;99.90;;;;;;4971498;28;20627;-73
2022/06/10 01:46:31;;;;;;;3.17;2.00;;;15.30;99.90;;;;;;4975749;28;20216;-72
2022/06/10 01:49:09;;;;;;;2.40;2.17;;;15.50;99.90;;;;;;4972677;28;20258;-71
2022/06/10 01:51:46;;;;;;;3.60;1.92;;;15.50;99.90;;;;;;4976499;28;20242;-72
2022/06/10 01:54:21;;;;;;;2.72;2.10;;;15.70;99.90;;;;;;4980652;28;20292;-72
2022/06/10 01:56:53;;;;;;;2.92;1.63;;;16.00;99.90;;;;;;4970737;28;20197;-72
2022/06/10 01:59:26;;;;;;;2.45;2.00;;;16.20;99.90;;;;;;4973588;28;20210;-73
2022/06/10 02:02:01;;;;;;;1.83;1.73;;;16.30;99.90;;;;;;4971821;28;20629;-70
2022/06/10 02:04:31;;;;;;;1.70;1.60;;;16.00;99.90;;;;;;4975025;28;20230;-73
2022/06/10 02:07:03;;;;;;;2.70;1.73;;;16.00;99.90;;;;;;4970296;28;20226;-73
2022/06/10 02:09:36;;;;;;;3.17;2.40;;;15.70;99.90;;;;;;4973004;28;20257;-72
2022/06/10 02:12:09;;;;;;;2.00;1.90;;;15.50;99.90;;;;;;4963657;28;20230;-72
2022/06/10 02:14:47;;;;;;;2.67;2.13;;;15.40;99.90;;;;;;4969226;28;20218;-72
2022/06/10 02:17:17;;;;;;;2.85;1.95;;;15.50;99.90;;;;;;4973566;28;20215;-72
2022/06/10 02:19:51;;;;;;;2.58;2.38;;;15.60;99.90;;;;;;4974410;28;20214;-72
2022/06/10 02:22:25;;;;;;;3.13;2.92;;;15.60;99.90;;;;;;4977780;28;20242;-71
2022/06/10 02:24:58;;;;;;;3.78;3.40;;;15.50;99.90;;;;;;4976076;28;20233;-72
2022/06/10 02:27:30;;;;;;;3.30;2.45;;;15.30;99.90;;;;;;4970373;28;20210;-72
2022/06/10 02:30:01;;;;;;;5.13;2.60;;;15.30;99.90;;;;;;4973478;28;20261;-73
2022/06/10 02:32:32;;;;;;;3.83;2.25;;;15.30;99.90;;;;;;4970630;28;20219;-72
2022/06/10 02:35:01;;;;;;;2.63;2.05;;;15.50;99.90;;;;;;4971375;28;20218;-72
2022/06/10 02:37:40;;;;;;;3.38;2.25;;;16.10;99.90;;;;;;4970436;28;20214;-72
2022/06/10 02:40:16;;;;;;;3.38;2.05;;;16.10;99.90;;;;;;4969071;28;20202;-72
2022/06/10 02:42:53;;;;;;;2.30;2.00;;;16.00;99.90;;;;;;4967175;28;20230;-72
2022/06/10 02:45:28;;;;;;;4.43;2.22;;;16.10;99.90;;;;;;4973681;28;20201;-71
2022/06/10 02:48:05;;;;;;;2.85;1.77;;;16.10;99.90;;;;;;4972065;28;20198;-72
2022/06/10 02:50:34;;;;;;;3.58;2.13;;;16.10;99.90;;;;;;4969861;28;20226;-72
2022/06/10 02:53:04;;;;;;;4.38;2.22;;;16.10;99.90;;;;;;4972977;28;21052;-72
2022/06/10 02:55:32;;;;;;;2.30;2.10;;;16.10;99.90;;;;;;4972674;28;20261;-72
2022/06/10 03:01:20;;;;;;;3.55;1.95;;;15.90;99.90;;;;;;4966714;28;20211;-70
2022/06/10 03:04:17;;;;;;;2.75;2.00;;;15.90;99.90;;;;;;4971646;28;20204;-72
2022/06/10 03:06:56;;;;;;;1.65;1.55;;;15.90;99.90;;;;;;4969286;28;20207;-70
2022/06/10 03:09:34;;;;;;;2.35;1.90;;;16.00;99.90;;;;;;4977558;28;20281;-72
2022/06/10 03:12:13;;;;;;;5.03;2.10;;;16.00;99.90;;;;;;4972568;28;20237;-70
2022/06/10 03:14:48;;;;;;;2.63;2.00;;;16.10;99.90;;;;;;4972108;28;20309;-71
2022/06/10 03:17:24;;;;;;;2.53;1.70;;;16.00;99.90;;;;;;4976155;28;20511;-72
2022/06/10 03:20:04;;;;;;;2.10;1.90;;;16.00;99.90;;;;;;4973734;28;20249;-71
2022/06/10 03:22:57;;;;;;;1.98;1.88;;;16.30;99.90;;;;;;4976235;28;20245;-72
2022/06/10 03:25:29;;;;;;;3.55;1.55;;;16.20;99.90;;;;;;4969341;28;20677;-71
2022/06/10 03:28:05;;;;;;;2.55;1.60;;;16.20;99.90;;;;;;4977081;28;20282;-72
2022/06/10 03:30:38;;;;;;;3.53;1.90;;;16.10;99.90;;;;;;4976692;28;20229;-72
2022/06/10 03:33:12;;;;;;;3.38;1.63;;;16.00;99.90;;;;;;4971059;28;20230;-71
2022/06/10 03:35:46;;;;;;;5.93;2.40;;;16.00;99.90;;;;;;4973592;28;20310;-72
2022/06/10 03:38:14;;;;;;;2.25;1.60;;;16.10;99.90;;;;;;4972764;28;20249;-72
2022/06/10 03:40:45;;;;;;;1.83;1.40;;;16.20;99.90;;;;;;4976181;28;20230;-72
2022/06/10 03:43:14;;;;;;;1.65;1.55;;;16.30;99.90;;;;;;4978600;28;20606;-72
2022/06/10 03:45:45;;;;;;;2.40;1.75;;;16.00;99.90;;;;;;4974570;28;20667;-72
2022/06/10 03:48:17;;;;;;;2.00;1.30;;;16.00;99.90;;;;;;4973354;28;20665;-72
2022/06/10 03:50:48;;;;;;;1.70;1.60;;;15.90;99.90;;;;;;4978238;28;20616;-73
2022/06/10 03:53:19;;;;;;;4.18;1.90;;;16.00;99.90;;;;;;4994419;23;20325;-63
2022/06/10 03:55:47;;;;;;;2.30;1.85;;;15.90;99.90;;;;;;4970514;28;20222;-64
2022/06/10 03:58:15;;;;;;;3.05;1.45;;;15.90;99.90;;;;;;4967654;28;20231;-63
2022/06/10 04:00:44;;;;;;;2.28;1.70;;;16.00;99.90;;;;;;4970386;28;20195;-63
2022/06/10 04:03:12;;;;;;;1.65;1.55;;;16.10;99.90;;;;;;4969818;28;20643;-62
2022/06/10 04:05:40;;;;;;;4.30;1.92;;;16.00;99.90;;;;;;4970169;28;20207;-62
2022/06/10 04:08:30;;;;;;;2.00;1.70;;;16.30;99.90;;;;;;4970807;28;20234;-62
2022/06/10 04:10:58;;;;;;;3.92;2.05;;;16.50;99.90;;;;;;4970806;28;20265;-64
2022/06/10 04:13:26;;;;;;;2.38;1.70;;;16.40;99.90;;;;;;4969443;28;20646;-63
2022/06/10 04:15:53;;;;;;;4.72;2.47;;;16.30;99.90;;;;;;4970519;28;20281;-63
2022/06/10 04:18:21;;;;;;;3.60;1.75;;;16.30;99.90;;;;;;4971665;28;20638;-63
2022/06/10 04:20:49;;;;;;;2.25;1.92;;;16.20;99.90;;;;;;4972291;28;20206;-62
2022/06/10 04:23:17;;;;;;;2.50;1.90;;;16.20;99.90;;;;;;4960596;28;20851;-65
2022/06/10 04:25:47;;;;;;;2.38;1.50;;;16.20;99.90;;;;;;4956621;28;20210;-63
2022/06/10 04:28:15;;;;;;;3.30;1.77;;;16.20;99.90;;;;;;4955462;28;20211;-63
2022/06/10 04:30:45;;;;;;;1.90;1.58;;;16.30;99.90;;;;;;4955952;28;20238;-63
2022/06/10 04:33:13;;;;;;;2.10;1.90;;;16.40;99.90;;;;;;4952497;28;21219;-64
2022/06/10 04:35:43;;;;;;;6.85;1.77;;;16.40;99.90;;;;;;4954545;28;20289;-64
2022/06/10 04:38:14;;;;;;;3.55;1.90;;;16.40;99.90;;;;;;4955986;28;20290;-64
2022/06/10 04:40:43;;;;;;;3.45;1.98;;;16.40;99.90;;;;;;4955095;28;20325;-64
2022/06/10 04:43:12;;;;;;;2.22;1.40;;;16.50;99.90;;;;;;4954981;28;20303;-64
2022/06/10 04:45:44;;;;;;;2.40;1.60;;;16.60;99.90;;;;;;4956687;28;20253;-64
2022/06/10 04:48:12;;;;;;;2.92;2.08;;;16.60;99.90;;;;;;4956842;28;20206;-64
2022/06/10 04:50:41;;;;;;;2.60;1.70;;;16.60;99.90;;;;;;4954088;28;20257;-64
2022/06/10 04:53:09;;;;;;;4.05;2.20;;;16.60;99.90;;;;;;4953314;28;20243;-63
2022/06/10 04:55:37;;;;;;;2.03;1.80;;;16.60;99.90;;;;;;4957307;28;20655;-64
2022/06/10 04:58:06;;;;;;;3.50;1.80;;;16.80;99.90;;;;;;4956503;28;20234;-63
2022/06/10 05:00:38;;;;;;;2.45;1.92;;;16.60;99.90;;;;;;4955642;28;20237;-65
2022/06/10 05:03:07;;;;;;;2.55;1.88;;;16.40;99.90;;;;;;4953961;28;20241;-65
2022/06/10 05:05:35;;;;;;;2.10;1.95;;;16.50;99.90;;;;;;4956661;28;20257;-64
2022/06/10 05:08:05;;;;;;;2.13;1.85;;;16.50;99.90;;;;;;4954707;28;20206;-64
2022/06/10 05:10:33;;;;;;;3.28;2.22;;;16.80;99.90;;;;;;4952165;28;20263;-64
2022/06/10 05:13:01;;;;;;;2.95;1.95;;;17.00;99.90;;;;;;4953958;28;20999;-65
2022/06/10 05:15:29;;;;;;;2.67;2.10;;;17.00;99.90;;;;;;4956663;28;20226;-64
2022/06/10 05:17:59;;;;;;;2.40;2.20;;;17.10;99.90;;;;;;4955192;28;20256;-64
2022/06/10 05:20:31;;;;;;;2.58;1.60;;;17.00;99.90;;;;;;4954467;28;20211;-65
2022/06/10 05:22:59;;;;;;;3.17;2.45;;;17.10;99.90;;;;;;4952734;28;20329;-64
2022/06/10 05:25:27;;;;;;;5.72;2.90;;;16.80;99.90;;;;;;4954136;28;20301;-63
2022/06/10 05:27:55;;;;;;;4.32;2.65;;;16.70;99.90;;;;;;4954911;28;20211;-64
2022/06/10 05:30:25;;;;;;;2.83;2.35;;;16.80;99.90;;;;;;4953911;28;20227;-64
2022/06/10 05:32:54;;;;;;;6.88;2.42;;;16.70;99.90;;;;;;4952663;28;20266;-64
2022/06/10 05:35:23;;;;;;;2.70;1.80;;;16.70;99.90;;;;;;4955957;28;21142;-64
2022/06/10 05:37:51;;;;;;;3.15;2.55;;;16.60;99.90;;;;;;4954258;28;20294;-64
2022/06/10 05:40:23;;;;;;;3.47;2.38;;;16.50;99.90;;;;;;4953483;28;20223;-64
2022/06/10 05:42:51;;;;;;;4.22;2.55;;;16.30;99.90;;;;;;4953648;28;20324;-64
2022/06/10 05:45:21;;;;;;;2.15;2.00;;;16.30;99.90;;;;;;4955486;28;20228;-64
2022/06/10 05:47:51;;;;;;;3.33;2.78;;;16.70;99.90;;;;;;4953200;28;20210;-65
2022/06/10 05:50:25;;;;;;;6.53;3.45;;;16.90;99.90;;;;;;4955657;28;20266;-64
2022/06/10 05:52:53;;;;;;;3.42;2.85;;;16.70;99.90;;;;;;4955540;28;20271;-64
2022/06/10 05:55:22;;;;;;;3.45;2.60;;;16.70;99.90;;;;;;4955005;28;20293;-65
2022/06/10 05:57:51;;;;;;;5.55;3.10;;;16.80;99.90;;;;;;4955240;28;20206;-64
2022/06/10 06:00:25;;;;;;;5.15;3.25;;;16.90;99.90;;;;;;4954906;28;20199;-64
2022/06/10 06:02:56;;;;;;;6.22;3.53;;;16.90;99.90;;;;;;4954371;28;20237;-65
2022/06/10 06:05:26;;;;;;;5.53;4.00;;;16.90;99.90;;;;;;4954895;28;20230;-64
2022/06/10 06:07:54;;;;;;;5.90;2.90;;;17.00;99.90;;;;;;4955028;28;20264;-64
2022/06/10 06:10:24;;;;;;;4.30;3.75;;;17.20;99.90;;;;;;4963250;28;21566;-64
2022/06/10 06:12:52;;;;;;;2.95;2.72;;;17.40;99.90;;;;;;4966832;28;20277;-65
2022/06/10 06:15:20;;;;;;;3.25;3.05;;;17.40;99.90;;;;;;4970099;28;20215;-63
2022/06/10 06:17:49;;;;;;;4.53;3.53;;;17.30;99.90;;;;;;4969785;28;20245;-63
2022/06/10 06:20:19;;;;;;;3.83;3.42;;;17.30;99.90;;;;;;4970547;28;20675;-65
2022/06/10 06:23:04;;;;;;;4.38;3.65;;;17.30;99.90;;;;;;4966950;28;20293;-66
2022/06/10 06:25:44;;;;;;;3.97;3.00;;;17.30;99.90;;;;;;4971623;28;20186;-65
2022/06/10 06:28:12;;;;;;;12.13;3.38;;;17.30;99.90;;;;;;4971872;28;20853;-65
2022/06/10 06:30:45;;;;;;;5.75;3.30;;;17.20;99.90;;;;;;4972592;28;20702;-65
2022/06/10 06:33:14;;;;;;;3.22;3.03;;;17.30;99.90;;;;;;4971470;28;20238;-65
2022/06/10 06:35:45;;;;;;;3.40;3.10;;;17.40;99.90;;;;;;4971696;28;20245;-65
2022/06/10 06:38:15;;;;;;;4.72;4.28;;;17.40;99.90;;;;;;4971908;28;20285;-65
2022/06/10 06:40:43;;;;;;;4.88;3.95;;;17.40;99.90;;;;;;4971494;28;20202;-64
2022/06/10 06:43:11;;;;;;;4.32;3.80;;;17.60;99.90;;;;;;4972821;28;20696;-65
2022/06/10 06:45:40;;;;;;;4.43;3.95;;;17.70;99.90;;;;;;4975628;28;20241;-65
2022/06/10 06:48:15;;;;;;;4.43;4.03;;;17.80;99.90;;;;;;4975874;28;20212;-65
2022/06/10 06:50:45;;;;;;;4.95;4.32;;;18.00;99.90;;;;;;4975799;28;20249;-65
2022/06/10 06:53:15;;;;;;;4.22;3.85;;;17.90;99.90;;;;;;4975305;28;20714;-65
2022/06/10 06:55:43;;;;;;;4.40;3.45;;;18.00;99.90;;;;;;4975787;28;20221;-65
2022/06/10 06:58:14;;;;;;;3.85;3.25;;;18.10;99.90;;;;;;4958092;28;20217;-65
2022/06/10 07:00:46;;;;;;;7.20;4.18;;;18.20;99.90;;;;;;4975648;28;20209;-65
2022/06/10 07:03:15;;;;;;;8.00;3.47;;;18.20;99.90;;;;;;4974839;28;20688;-65
2022/06/10 07:05:43;;;;;;;6.78;4.15;;;18.20;99.90;;;;;;4975551;28;20217;-65
2022/06/10 07:08:11;;;;;;;6.30;3.78;;;18.20;99.90;;;;;;4975440;28;20261;-65
2022/06/10 07:10:41;;;;;;;5.28;3.85;;;18.30;99.90;;;;;;4975250;28;20249;-65
2022/06/10 07:13:09;;;;;;;5.85;3.40;;;18.40;99.90;;;;;;4974313;28;20269;-65
2022/06/10 07:15:39;;;;;;;4.50;3.60;;;18.60;99.90;;;;;;4971980;28;20668;-66
2022/06/10 07:18:08;;;;;;;4.68;3.72;;;18.80;99.90;;;;;;4975300;28;20211;-65
2022/06/10 07:20:37;;;;;;;3.95;3.08;;;18.90;99.90;;;;;;4969662;28;20203;-65
2022/06/10 07:23:06;;;;;;;4.88;3.92;;;19.10;99.90;;;;;;4974589;28;20281;-65
2022/06/10 07:25:35;;;;;;;5.60;3.50;;;19.20;99.90;;;;;;4974939;28;20245;-65
2022/06/10 07:28:05;;;;;;;5.63;3.65;;;19.30;99.90;;;;;;4974578;28;20277;-66
2022/06/10 07:30:35;;;;;;;6.63;3.15;;;19.20;99.90;;;;;;4975134;28;20265;-66
2022/06/10 07:33:03;;;;;;;3.47;3.10;;;19.40;99.90;;;;;;4974712;28;20643;-64
2022/06/10 07:35:32;;;;;;;7.32;3.30;;;19.60;99.90;;;;;;4975298;28;20569;-65
2022/06/10 07:38:00;;;;;;;4.10;3.80;;;19.80;99.90;;;;;;4974961;28;20246;-66
2022/06/10 07:43:38;;;;;;;7.43;3.10;;;20.00;99.90;;;;;;4973784;28;20236;-65
2022/06/10 07:46:08;;;;;;;6.57;2.90;;;20.20;99.90;;;;;;4968600;28;20676;-65
2022/06/10 07:48:36;;;;;;;3.15;2.80;;;20.30;99.90;;;;;;4968581;28;20243;-65
2022/06/10 07:51:04;;;;;;;4.00;2.92;;;20.30;99.90;;;;;;4974274;28;20671;-65
2022/06/10 07:53:32;;;;;;;6.60;3.30;;;20.40;99.90;;;;;;4967356;28;20301;-65
2022/06/10 07:56:01;;;;;;;3.38;2.92;;;20.50;99.90;;;;;;4974567;28;20249;-65
2022/06/10 07:58:29;;;;;;;5.68;3.47;;;20.60;99.90;;;;;;4968544;28;20210;-66
2022/06/10 08:00:59;;;;;;;6.07;3.55;;;20.70;99.90;;;;;;4967769;28;20629;-65
2022/06/10 08:03:28;;;;;;;4.07;3.55;;;20.80;99.90;;;;;;4967972;28;20222;-65
2022/06/10 08:05:58;;;;;;;4.80;2.90;;;20.60;99.90;;;;;;4974697;28;20225;-65
2022/06/10 08:08:27;;;;;;;4.50;3.92;;;20.80;99.90;;;;;;4974027;28;20614;-66
2022/06/10 08:10:56;;;;;;;3.80;3.47;;;20.80;99.90;;;;;;4968730;28;20615;-65
2022/06/10 08:13:25;;;;;;;3.72;3.40;;;21.00;99.90;;;;;;4973158;28;20657;-66
2022/06/10 08:15:57;;;;;;;6.85;3.63;;;21.20;99.90;;;;;;4974305;28;20203;-65
2022/06/10 08:18:31;;;;;;;8.27;3.38;;;21.20;99.90;;;;;;4974373;28;20321;-65
2022/06/10 08:23:44;;;;;;;4.68;3.47;;;21.60;99.90;;;;;;4972462;28;20360;-66
2022/06/10 08:26:13;;;;;;;7.78;3.97;;;21.70;99.90;;;;;;4974512;28;20195;-66
2022/06/10 08:28:43;;;;;;;4.50;3.95;;;21.80;99.90;;;;;;4974104;28;21070;-66
2022/06/10 08:31:11;;;;;;;11.07;2.45;;;21.80;99.90;;;;;;4973685;28;20289;-71
2022/06/10 08:33:42;;;;;;;4.13;2.60;;;21.80;99.90;;;;;;4973016;28;20811;-65
2022/06/10 08:36:10;;;;;;;3.60;2.42;;;21.90;99.90;;;;;;4974136;28;20203;-66
2022/06/10 08:38:41;;;;;;;3.92;2.47;;;22.00;99.90;;;;;;4973140;28;20234;-65
2022/06/10 08:41:24;;;;;;;4.28;2.30;;;22.30;99.90;;;;;;4973666;28;20210;-66
2022/06/10 08:44:03;;;;;;;2.95;1.92;;;22.40;99.90;;;;;;4967305;28;20222;-65
2022/06/10 08:46:47;;;;;;;1.85;1.75;;;22.60;99.90;;;;;;4973409;28;20199;-65
2022/06/10 08:49:51;;;;;;;3.22;1.60;;;22.60;99.90;;;;;;4973549;28;20708;-65
2022/06/10 08:52:28;;;;;;;4.93;1.65;;;22.40;99.90;;;;;;4968898;28;20292;-65
2022/06/10 08:55:04;;;;;;;2.67;2.03;;;22.50;99.90;;;;;;4954258;29;20207;-66
2022/06/10 08:57:37;;;;;;;3.75;1.75;;;22.70;99.90;;;;;;4953983;29;20266;-66
2022/06/10 09:00:12;;;;;;;6.72;2.10;;;23.00;99.90;;;;;;4954180;29;20239;-66
2022/06/10 09:02:46;;;;;;;1.80;1.27;;;23.30;99.90;;;;;;4953505;28;20242;-66
2022/06/10 09:05:23;;;;;;;2.70;1.90;;;23.50;99.90;;;;;;4953627;28;20279;-66
2022/06/10 09:07:54;;;;;;;2.95;1.30;;;23.70;99.90;;;;;;4953766;29;20207;-65
2022/06/10 09:10:24;;;;;;;2.17;1.75;;;23.80;99.90;;;;;;4953603;29;20211;-65
2022/06/10 09:13:22;;;;;;;1.65;1.25;;;23.80;99.90;;;;;;4953561;28;20262;-65
2022/06/10 09:15:55;;;;;;;3.00;1.73;;;23.80;99.90;;;;;;4954000;29;20278;-64
2022/06/10 09:18:28;;;;;;;4.63;1.90;;;23.90;99.90;;;;;;4953655;29;20234;-66
2022/06/10 09:21:07;;;;;;;2.20;1.80;;;23.90;99.90;;;;;;4948527;29;20253;-66
2022/06/10 09:23:39;;;;;;;5.22;1.90;;;24.00;99.90;;;;;;4952717;29;20704;-66
2022/06/10 09:26:12;;;;;;;4.20;1.67;;;24.00;99.90;;;;;;4953969;29;20207;-65
2022/06/10 09:28:47;;;;;;;4.85;2.25;;;24.20;99.90;;;;;;4953699;29;20668;-66
2022/06/10 09:31:25;;;;;;;1.63;1.40;;;24.40;99.90;;;;;;4953760;29;20211;-65
2022/06/10 09:34:00;;;;;;;2.42;1.42;;;24.60;99.80;;;;;;4953069;28;20610;-66
2022/06/10 09:36:37;;;;;;;2.42;1.73;;;24.90;99.60;;;;;;4947942;29;20266;-66
2022/06/10 09:40:35;;;;;;;2.95;1.90;;;24.90;99.90;;;;;;4953293;28;20246;-66
2022/06/10 09:42:10;;;;;;;1.75;1.65;;;25.20;99.60;;;;;;4952924;29;20290;-65
2022/06/10 09:44:47;;;;;;;3.55;2.45;;;25.10;99.50;;;;;;4957144;28;20679;-66
2022/06/10 09:47:27;;;;;;;2.17;1.40;;;24.70;98.90;;;;;;4947640;29;20203;-66
2022/06/10 09:50:13;;;;;;;2.63;1.60;;;24.70;99.50;;;;;;4953296;29;20211;-66
2022/06/10 09:52:54;;;;;;;4.72;2.45;;;24.90;99.90;;;;;;4953965;28;20613;-66
2022/06/10 09:55:50;;;;;;;4.55;2.20;;;24.70;98.80;;;;;;4973504;28;20221;-66
2022/06/10 09:58:45;;;;;;;4.63;2.17;;;24.70;99.90;;;;;;4969665;28;20254;-65
2022/06/10 10:01:28;;;;;;;2.55;1.98;;;24.60;99.90;;;;;;4972068;28;20221;-66
2022/06/10 10:04:15;;;;;;;3.50;1.63;;;24.60;99.70;;;;;;4972211;28;20218;-66
2022/06/10 10:06:47;;;;;;;3.47;1.90;;;25.10;99.60;;;;;;4972561;28;20249;-65
2022/06/10 10:09:26;;;;;;;2.50;1.60;;;25.80;99.00;;;;;;4972295;28;20199;-66
2022/06/10 10:12:05;;;;;;;1.45;1.35;;;26.00;97.40;;;;;;4966040;28;20530;-66
2022/06/10 10:14:41;;;;;;;1.80;1.40;;;26.40;97.30;;;;;;4970641;28;20222;-66
2022/06/10 10:17:32;;;;;;;7.97;1.75;;;27.00;97.40;;;;;;4968827;28;20603;-65
2022/06/10 10:20:09;;;;;;;3.13;1.30;;;27.10;96.80;;;;;;4972431;28;20202;-66
2022/06/10 10:23:02;;;;;;;2.45;1.20;;;27.20;96.90;;;;;;4971323;28;20210;-66
2022/06/10 10:25:32;;;;;;;3.03;1.45;;;26.80;96.90;;;;;;4971819;28;20743;-65
2022/06/10 10:28:00;;;;;;;1.58;1.45;;;26.80;96.30;;;;;;4972572;28;20651;-66
2022/06/10 10:30:35;;;;;;;1.95;1.15;;;26.70;96.30;;;;;;4971353;28;20257;-66
2022/06/10 10:33:06;;;;;;;3.33;1.60;;;27.10;96.50;;;;;;4971417;28;20777;-66
2022/06/10 10:35:42;;;;;;;1.83;1.08;;;27.50;95.30;;;;;;4971638;28;20238;-65
2022/06/10 10:38:12;;;;;;;5.03;1.70;;;27.70;94.60;;;;;;4972292;28;20256;-66
2022/06/10 10:40:44;;;;;;;5.65;1.85;;;28.00;94.20;;;;;;4972285;28;20202;-66
2022/06/10 10:43:16;;;;;;;6.32;1.58;;;28.30;93.30;;;;;;4971346;28;20227;-66
2022/06/10 10:45:55;;;;;;;1.20;1.08;;;28.10;93.20;;;;;;4968237;28;20198;-66
2022/06/10 10:48:27;;;;;;;3.97;1.42;;;27.90;93.40;;;;;;4971877;28;20722;-66
2022/06/10 10:51:00;;;;;;;2.30;1.50;;;28.10;93.80;;;;;;4972076;28;20237;-65
2022/06/10 10:53:35;;;;;;;2.65;1.35;;;28.10;92.20;;;;;;4971318;28;20329;-66
2022/06/10 10:56:08;;;;;;;4.05;1.20;;;28.10;91.30;;;;;;4971488;28;20253;-65
2022/06/10 10:58:38;;;;;;;3.85;1.80;;;27.80;92.00;;;;;;4971895;28;20714;-66
2022/06/10 11:01:09;;;;;;;2.70;1.13;;;27.60;92.30;;;;;;4972094;28;20207;-65
2022/06/10 11:03:46;;;;;;;2.80;1.50;;;27.60;93.20;;;;;;4970641;28;20257;-65
2022/06/10 11:06:25;;;;;;;2.00;1.73;;;28.00;92.30;;;;;;4970727;28;20249;-66
2022/06/10 11:08:57;;;;;;;2.10;1.20;;;28.10;91.70;;;;;;4972128;28;20230;-66
2022/06/10 11:11:31;;;;;;;4.57;1.92;;;27.80;92.20;;;;;;4971846;28;20209;-65
2022/06/10 11:14:20;;;;;;;3.05;1.40;;;27.50;92.30;;;;;;4970589;28;20245;-65
2022/06/10 11:17:16;;;;;;;2.78;1.40;;;27.50;92.30;;;;;;4969368;28;20207;-65
2022/06/10 11:19:53;;;;;;;3.83;1.45;;;27.90;91.90;;;;;;4970445;28;20230;-66
2022/06/10 11:22:28;;;;;;;2.17;1.40;;;28.00;92.30;;;;;;4964764;28;20222;-66
2022/06/10 11:25:25;;;;;;;2.65;1.35;;;28.30;92.70;;;;;;4971581;28;20202;-65
2022/06/10 11:28:02;;;;;;;2.47;1.20;;;28.30;91.60;;;;;;4971737;28;20230;-66
2022/06/10 11:30:43;;;;;;;3.53;1.40;;;28.70;91.50;;;;;;4975200;28;20241;-66
2022/06/10 11:33:21;;;;;;;3.25;1.77;;;29.10;91.60;;;;;;4974549;28;20224;-66
2022/06/10 11:36:07;;;;;;;7.15;1.63;;;29.20;90.90;;;;;;4975361;28;20298;-65
2022/06/10 11:38:39;;;;;;;7.25;1.50;;;29.00;90.10;;;;;;4974990;28;20218;-66
2022/06/10 11:41:27;;;;;;;2.20;1.33;;;28.70;92.60;;;;;;4975481;28;20265;-66
2022/06/10 11:44:02;;;;;;;2.38;1.38;;;29.00;91.50;;;;;;4974221;28;20261;-65
2022/06/10 11:46:37;;;;;;;2.35;1.23;;;29.20;90.20;;;;;;4974876;28;20968;-66
2022/06/10 11:49:13;;;;;;;5.47;1.70;;;29.90;90.00;;;;;;4971579;28;20240;-66
2022/06/10 11:51:46;;;;;;;3.83;1.60;;;29.90;88.10;;;;;;4975030;28;20311;-66
2022/06/10 11:54:26;;;;;;;3.45;1.70;;;29.50;91.10;;;;;;4974060;28;20239;-66
2022/06/10 12:00:13;;;;;;;1.90;1.80;;;29.40;90.40;;;;;;4974491;28;20230;-66
2022/06/10 12:02:45;;;;;;;3.28;1.25;;;28.80;90.30;;;;;;4973909;28;20261;-66
2022/06/10 12:05:23;;;;;;;4.85;1.75;;;28.80;90.30;;;;;;4974722;28;20246;-66
2022/06/10 12:07:59;;;;;;;7.75;1.92;;;29.10;89.30;;;;;;4970144;28;20202;-66
2022/06/10 12:10:43;;;;;;;3.28;1.23;;;29.50;90.30;;;;;;4974805;28;20786;-66
2022/06/10 12:13:12;;;;;;;3.88;2.38;;;29.90;87.90;;;;;;4973877;28;20639;-65
2022/06/10 12:15:49;;;;;;;3.17;1.52;;;29.60;85.00;;;;;;4973904;28;20225;-66
2022/06/10 12:18:18;;;;;;;2.88;1.30;;;29.90;88.70;;;;;;4974437;28;20202;-66
2022/06/10 12:20:49;;;;;;;4.78;1.55;;;29.70;86.60;;;;;;4974468;28;20226;-66
2022/06/10 12:23:24;;;;;;;2.65;1.25;;;29.00;87.50;;;;;;4974547;28;20641;-66
2022/06/10 12:25:59;;;;;;;2.08;1.30;;;28.60;87.70;;;;;;4974230;28;20265;-66
2022/06/10 12:28:34;;;;;;;3.17;1.45;;;28.30;87.80;;;;;;4974139;28;20261;-65
2022/06/10 12:31:15;;;;;;;5.57;1.65;;;27.90;87.20;;;;;;4974289;28;20273;-66
2022/06/10 12:33:48;;;;;;;2.95;1.10;;;27.70;88.30;;;;;;4973487;28;20218;-67
2022/06/10 12:36:29;;;;;;;2.50;1.60;;;28.20;88.50;;;;;;4972398;28;20206;-66
2022/06/10 12:38:58;;;;;;;2.58;1.20;;;28.80;88.40;;;;;;4967880;28;20215;-66
2022/06/10 12:41:34;;;;;;;2.53;1.15;;;29.20;87.00;;;;;;4967066;28;20211;-66
2022/06/10 12:44:06;;;;;;;4.65;1.85;;;29.70;86.60;;;;;;4968200;28;20261;-66
2022/06/10 12:46:41;;;;;;;4.93;1.77;;;30.20;85.20;;;;;;4973103;28;20198;-66
2022/06/10 12:49:19;;;;;;;1.55;1.10;;;30.20;84.00;;;;;;4971087;28;20285;-66
2022/06/10 12:51:59;;;;;;;3.08;1.40;;;30.20;84.90;;;;;;4974072;28;20264;-66
2022/06/10 12:54:34;;;;;;;3.90;1.25;;;30.70;82.80;;;;;;4973503;28;20270;-66
2022/06/10 12:57:29;;;;;;;1.85;1.35;;;30.70;84.40;;;;;;4973561;28;20261;-66
2022/06/10 13:00:35;;;;;;;3.05;1.10;;;31.10;82.00;;;;;;4973707;28;20245;-66
2022/06/10 13:03:25;;;;;;;2.47;1.10;;;31.40;84.30;;;;;;4968367;28;20722;-66
2022/06/10 13:05:55;;;;;;;2.08;1.33;;;31.30;81.70;;;;;;4973611;28;20207;-66
2022/06/10 13:08:47;;;;;;;7.20;1.48;;;31.20;80.50;;;;;;4973285;28;20684;-66
2022/06/10 13:11:35;;;;;;;2.38;1.23;;;31.20;79.90;;;;;;4968430;28;20207;-66
2022/06/10 13:14:18;;;;;;;3.80;1.88;;;31.70;79.30;;;;;;4972811;28;20250;-67
2022/06/10 13:16:48;;;;;;;8.05;1.50;;;31.90;79.40;;;;;;4972918;28;20230;-66
2022/06/10 13:19:42;;;;;;;3.00;1.10;;;31.70;79.40;;;;;;4972598;28;20650;-66
2022/06/10 13:22:32;;;;;;;2.10;1.50;;;32.00;78.20;;;;;;4951059;28;20214;-66
2022/06/10 13:25:20;;;;;;;2.88;1.42;;;32.00;79.20;;;;;;4972933;28;20603;-66
2022/06/10 13:27:49;;;;;;;4.50;1.85;;;31.40;79.70;;;;;;4968514;28;20195;-66
2022/06/10 13:30:20;;;;;;;2.00;1.20;;;31.20;78.00;;;;;;4973142;28;20623;-66
2022/06/10 13:32:53;;;;;;;4.50;1.30;;;31.00;76.10;;;;;;4971630;28;20240;-66